createdAt,value
2023-05-19T00:01:00.358Z,99096.44
2023-05-19T00:03:27.484Z,99092.16
2023-05-19T00:05:54.370Z,99093.09
2023-05-19T00:08:23.481Z,99086.19
2023-05-19T00:10:50.682Z,99088.09
2023-05-19T00:13:17.379Z,99076.81
2023-05-19T00:15:44.482Z,99076.91
2023-05-19T00:18:14.020Z,99084.13
2023-05-19T00:20:41.517Z,99079.66
2023-05-19T00:23:08.602Z,99075.50
2023-05-19T00:25:35.208Z,99075.50
2023-05-19T00:28:03.036Z,99078.25
2023-05-19T00:30:30.951Z,99076.53
2023-05-19T00:32:58.101Z,99081.09
2023-05-19T00:35:24.965Z,99082.13
2023-05-19T00:37:51.750Z,99086.47
2023-05-19T00:40:18.576Z,99078.53
2023-05-19T00:42:45.642Z,99082.97
2023-05-19T00:45:12.435Z,99080.53
2023-05-19T00:47:39.605Z,99074.25
2023-05-19T00:50:06.952Z,99082.03
2023-05-19T00:52:33.747Z,99078.44
2023-05-19T00:55:00.874Z,99073.22
2023-05-19T00:57:28.308Z,99077.47
2023-05-19T00:59:55.525Z,99074.81
2023-05-19T01:02:22.215Z,99079.19
2023-05-19T01:04:50.651Z,99074.75
2023-05-19T01:07:18.747Z,99073.97
2023-05-19T01:09:47.068Z,56955.81
2023-05-19T01:12:13.877Z,56955.81
2023-05-19T01:14:40.832Z,56955.81
2023-05-19T01:17:21.276Z,56955.81
2023-05-19T01:19:56.487Z,56955.81
2023-05-19T01:22:37.215Z,56955.81
2023-05-19T01:25:42.686Z,56955.81
2023-05-19T01:28:15.744Z,56955.81
2023-05-19T01:30:45.410Z,56955.81
2023-05-19T01:33:14.632Z,56955.81
2023-05-19T01:35:43.323Z,56955.81
2023-05-19T01:38:11.567Z,56955.81
2023-05-19T01:40:41.988Z,56955.81
2023-05-19T01:43:12.577Z,56955.81
2023-05-19T01:45:40.739Z,56955.81
2023-05-19T01:48:10.890Z,56955.81
2023-05-19T01:50:39.560Z,56955.81
2023-05-19T01:53:06.430Z,56955.81
2023-05-19T01:55:44.650Z,56955.81
2023-05-19T01:58:46.950Z,56955.81
2023-05-19T02:01:26.747Z,56955.81
2023-05-19T02:04:23.642Z,56955.81
2023-05-19T02:07:09.989Z,56955.81
2023-05-19T02:10:06.297Z,56955.81
2023-05-19T02:12:36.041Z,56955.81
2023-05-19T02:15:17.801Z,56955.81
2023-05-19T02:17:48.292Z,56955.81
2023-05-19T02:20:16.304Z,56955.81
2023-05-19T02:22:43.616Z,56955.81
2023-05-19T02:25:10.795Z,56955.81
2023-05-19T02:27:38.600Z,56955.81
2023-05-19T02:30:06.328Z,56955.81
2023-05-19T02:32:33.565Z,56955.81
2023-05-19T02:35:01.761Z,56955.81
2023-05-19T02:37:31.224Z,56955.81
2023-05-19T02:39:58.189Z,56955.81
2023-05-19T02:42:24.960Z,56955.81
2023-05-19T02:44:54.245Z,56955.81
2023-05-19T02:47:21.094Z,56955.81
2023-05-19T02:49:47.998Z,56955.81
2023-05-19T02:52:15.626Z,56955.81
2023-05-19T02:54:42.619Z,56955.81
2023-05-19T02:57:09.440Z,56955.81
2023-05-19T02:59:36.682Z,56955.81
2023-05-19T03:02:03.789Z,56955.81
2023-05-19T03:04:30.652Z,56955.81
2023-05-19T03:06:57.861Z,56955.81
2023-05-19T03:09:24.898Z,56955.81
2023-05-19T03:11:51.771Z,56955.81
2023-05-19T03:14:18.791Z,56955.81
2023-05-19T03:16:45.752Z,56955.81
2023-05-19T03:19:12.878Z,56955.81
2023-05-19T03:21:39.785Z,56955.81
2023-05-19T03:24:07.246Z,56955.81
2023-05-19T03:26:34.994Z,56955.81
2023-05-19T03:29:01.799Z,56955.81
2023-05-19T03:31:30.703Z,56955.81
2023-05-19T03:33:58.424Z,56955.81
2023-05-19T03:36:26.249Z,56955.81
2023-05-19T03:38:53.277Z,56955.81
2023-05-19T03:41:20.106Z,56955.81
2023-05-19T03:43:46.942Z,56955.81
2023-05-19T03:46:14.633Z,56955.81
2023-05-19T03:48:56.159Z,56955.81
2023-05-19T03:51:30.006Z,56955.81
2023-05-19T03:54:04.571Z,56955.81
2023-05-19T03:56:32.896Z,56955.81
2023-05-19T03:59:00.319Z,56955.81
2023-05-19T04:01:27.851Z,56955.81
2023-05-19T04:03:57.704Z,56955.81
2023-05-19T04:06:24.845Z,56955.81
2023-05-19T04:08:51.608Z,56955.81
2023-05-19T04:11:20.118Z,56955.81
2023-05-19T04:13:46.916Z,56955.81
2023-05-19T04:16:14.649Z,56955.81
2023-05-19T04:18:42.467Z,56955.81
2023-05-19T04:21:09.191Z,56955.81
2023-05-19T04:23:36.252Z,56955.81
2023-05-19T04:26:03.662Z,56955.81
2023-05-19T04:28:30.528Z,56955.81
2023-05-19T04:31:00.600Z,56955.81
2023-05-19T04:33:29.315Z,56955.81
2023-05-19T04:35:56.788Z,56955.81
2023-05-19T04:38:23.545Z,56955.81
2023-05-19T04:40:52.032Z,56955.81
2023-05-19T04:43:20.003Z,56955.81
2023-05-19T04:45:47.595Z,56955.81
2023-05-19T04:48:15.790Z,56955.81
2023-05-19T04:50:43.309Z,56955.81
2023-05-19T04:53:11.447Z,56955.81
2023-05-19T04:55:38.957Z,56955.81
2023-05-19T04:58:07.063Z,56955.81
2023-05-19T05:00:35.886Z,56955.81
2023-05-19T05:03:07.193Z,56955.81
2023-05-19T05:05:35.115Z,56955.81
2023-05-19T05:08:02.104Z,56955.81
2023-05-19T05:10:34.208Z,56955.81
2023-05-19T05:13:02.064Z,56955.81
2023-05-19T05:15:30.151Z,56955.81
2023-05-19T05:18:00.499Z,56955.81
2023-05-19T05:20:28.268Z,56955.81
2023-05-19T05:22:56.007Z,56955.81
2023-05-19T05:25:23.571Z,56955.81
2023-05-19T05:27:51.308Z,56955.81
2023-05-19T05:30:18.628Z,56955.81
2023-05-19T05:32:46.267Z,56955.81
2023-05-19T05:35:27.702Z,56955.81
2023-05-19T05:37:55.046Z,56955.81
2023-05-19T05:40:21.941Z,56955.81
2023-05-19T05:42:50.102Z,56955.81
2023-05-19T05:45:19.470Z,56955.81
2023-05-19T05:47:47.365Z,56955.81
2023-05-19T05:50:15.089Z,56955.81
2023-05-19T05:52:46.358Z,56955.81
2023-05-19T05:55:15.374Z,56955.81
2023-05-19T05:57:42.178Z,56955.81
2023-05-19T06:00:15.333Z,56955.81
2023-05-19T06:02:44.778Z,56955.81
2023-05-19T06:05:12.444Z,56955.81
2023-05-19T06:07:42.821Z,56955.81
2023-05-19T06:10:11.763Z,56955.81
2023-05-19T06:12:43.219Z,56955.81
2023-05-19T06:15:11.129Z,56955.81
2023-05-19T06:17:56.206Z,56955.81
2023-05-19T06:20:23.046Z,56955.81
2023-05-19T06:22:51.107Z,56955.81
2023-05-19T06:25:20.743Z,56955.81
2023-05-19T06:27:47.790Z,56955.81
2023-05-19T06:30:16.041Z,56955.81
2023-05-19T06:33:01.592Z,56955.81
2023-05-19T06:35:28.549Z,56955.81
2023-05-19T06:37:56.346Z,56955.81
2023-05-19T06:40:23.566Z,56955.81
2023-05-19T06:42:50.573Z,56955.81
2023-05-19T06:45:36.082Z,56955.81
2023-05-19T06:48:04.602Z,56955.81
2023-05-19T06:50:31.913Z,56955.81
2023-05-19T06:52:58.872Z,56955.81
2023-05-19T06:55:25.907Z,56955.81
2023-05-19T06:57:52.763Z,56955.81
2023-05-19T07:00:22.129Z,56955.81
2023-05-19T07:02:51.850Z,56955.81
2023-05-19T07:05:19.394Z,56955.81
2023-05-19T07:07:50.934Z,56955.81
2023-05-19T07:10:22.028Z,56955.81
2023-05-19T07:12:50.329Z,56955.81
2023-05-19T07:15:18.877Z,56955.81
2023-05-19T07:17:45.776Z,56955.81
2023-05-19T07:20:13.350Z,56955.81
2023-05-19T07:22:40.456Z,56955.81
2023-05-19T07:25:08.547Z,56955.81
2023-05-19T07:27:35.879Z,56955.81
2023-05-19T07:30:04.124Z,56955.81
2023-05-19T07:32:31.040Z,56955.81
2023-05-19T07:34:58.390Z,56955.81
2023-05-19T07:37:26.758Z,56955.81
2023-05-19T07:39:53.749Z,56955.81
2023-05-19T07:42:20.623Z,56955.81
2023-05-19T07:44:47.431Z,56955.81
2023-05-19T07:47:14.150Z,56955.81
2023-05-19T07:49:40.956Z,56955.81
2023-05-19T07:52:07.720Z,56955.81
2023-05-19T07:54:34.597Z,56955.81
2023-05-19T07:57:01.550Z,56955.81
2023-05-19T07:59:28.408Z,56955.81
2023-05-19T08:01:55.178Z,56955.81
2023-05-19T08:04:21.971Z,56955.81
2023-05-19T08:06:48.780Z,56955.81
2023-05-19T08:09:15.474Z,56955.81
2023-05-19T08:11:42.214Z,56955.81
2023-05-19T08:14:09.103Z,56955.81
2023-05-19T08:16:35.938Z,56955.81
2023-05-19T08:19:04.909Z,56955.81
2023-05-19T08:21:34.809Z,56955.81
2023-05-19T08:24:02.178Z,56955.81
2023-05-19T08:26:29.176Z,56955.81
2023-05-19T08:28:56.035Z,56955.81
2023-05-19T08:31:22.871Z,56955.81
2023-05-19T08:33:49.650Z,56955.81
2023-05-19T08:36:16.416Z,56955.81
2023-05-19T08:38:43.209Z,56955.81
2023-05-19T08:41:10.713Z,56955.81
2023-05-19T08:43:39.866Z,56955.81
2023-05-19T08:46:08.308Z,56955.81
2023-05-19T08:48:39.516Z,56955.81
2023-05-19T08:51:17.961Z,56955.81
2023-05-19T08:53:50.766Z,56955.81
2023-05-19T08:56:22.826Z,56955.81
2023-05-19T08:58:51.143Z,56955.81
2023-05-19T09:01:19.425Z,56955.81
2023-05-19T09:03:49.743Z,56955.81
2023-05-19T09:06:17.105Z,56955.81
2023-05-19T09:08:44.294Z,56955.81
2023-05-19T09:11:11.824Z,56955.81
2023-05-19T09:13:39.137Z,56955.81
2023-05-19T09:16:06.595Z,56955.81
2023-05-19T09:18:33.986Z,56955.81
2023-05-19T09:21:03.060Z,56955.81
2023-05-19T09:23:34.214Z,56955.81
2023-05-19T09:26:07.738Z,56955.81
2023-05-19T09:28:36.825Z,56955.81
2023-05-19T09:31:06.221Z,56955.81
2023-05-19T09:33:35.416Z,56955.81
2023-05-19T09:36:03.696Z,56955.81
2023-05-19T09:38:30.849Z,56955.81
2023-05-19T09:40:59.721Z,56955.81
2023-05-19T09:43:36.458Z,56955.81
2023-05-19T09:46:14.639Z,56955.81
2023-05-19T09:48:42.535Z,56955.81
2023-05-19T09:51:12.419Z,56955.81
2023-05-19T09:53:39.470Z,56955.81
2023-05-19T09:56:08.810Z,56955.81
2023-05-19T09:58:36.534Z,56955.81
2023-05-19T10:01:04.706Z,56955.81
2023-05-19T10:03:35.127Z,56955.81
2023-05-19T10:06:04.404Z,56955.81
2023-05-19T10:08:32.770Z,56955.81
2023-05-19T10:11:00.199Z,56955.81
2023-05-19T10:13:29.215Z,56955.81
2023-05-19T10:15:59.250Z,56955.81
2023-05-19T10:18:30.198Z,56955.81
2023-05-19T10:20:58.179Z,56955.81
2023-05-19T10:23:25.787Z,56955.81
2023-05-19T10:25:56.847Z,56955.81
2023-05-19T10:28:28.164Z,56955.81
2023-05-19T10:30:59.425Z,56955.81
2023-05-19T10:33:53.525Z,56955.81
2023-05-19T10:36:51.690Z,56955.81
2023-05-19T10:39:36.857Z,56955.81
2023-05-19T10:42:29.630Z,56955.81
2023-05-19T10:45:12.429Z,56955.81
2023-05-19T10:47:41.657Z,56955.81
2023-05-19T10:50:08.857Z,56955.81
2023-05-19T10:52:40.380Z,56955.81
2023-05-19T10:55:17.890Z,56955.81
2023-05-19T10:57:54.284Z,56955.81
2023-05-19T11:00:28.334Z,56955.81
2023-05-19T11:03:13.622Z,56955.81
2023-05-19T11:05:40.689Z,56955.81
2023-05-19T11:08:08.525Z,56955.81
2023-05-19T11:10:35.492Z,56955.81
2023-05-19T11:15:37.261Z,56955.81
2023-05-19T11:18:04.921Z,56955.81
2023-05-19T11:20:35.236Z,56955.81
2023-05-19T11:23:07.132Z,56955.81
2023-05-19T11:25:46.986Z,56955.81
2023-05-19T11:28:19.792Z,56955.81
2023-05-19T11:30:52.038Z,56955.81
2023-05-19T11:33:20.669Z,56955.81
2023-05-19T11:35:49.579Z,56955.81
2023-05-19T11:38:18.596Z,56955.81
2023-05-19T11:40:45.555Z,56955.81
2023-05-19T11:43:12.355Z,56955.81
2023-05-19T11:45:39.481Z,56955.81
2023-05-19T11:48:06.989Z,56955.81
2023-05-19T11:50:35.323Z,56955.81
2023-05-19T11:53:02.580Z,56955.81
2023-05-19T11:55:30.349Z,56955.81
2023-05-19T11:58:04.937Z,56955.81
2023-05-19T12:00:40.031Z,56955.81
2023-05-19T12:03:08.160Z,56955.81
2023-05-19T12:05:41.944Z,56955.81
2023-05-19T12:08:11.364Z,56955.81
2023-05-19T12:10:39.631Z,56955.81
2023-05-19T12:13:10.361Z,56955.81
2023-05-19T12:15:37.681Z,56955.81
2023-05-19T12:18:04.645Z,56955.81
2023-05-19T12:20:32.729Z,56955.81
2023-05-19T12:23:00.911Z,56955.81
2023-05-19T12:25:29.322Z,56955.81
2023-05-19T12:28:00.409Z,56955.81
2023-05-19T12:30:31.199Z,56955.81
2023-05-19T12:32:58.704Z,56955.81
2023-05-19T12:35:29.955Z,56955.81
2023-05-19T12:37:57.589Z,56955.81
2023-05-19T12:40:24.366Z,56955.81
2023-05-19T12:42:53.438Z,56955.81
2023-05-19T12:45:22.877Z,56955.81
2023-05-19T12:47:50.485Z,56955.81
2023-05-19T12:50:17.321Z,56955.81
2023-05-19T12:52:49.727Z,56955.81
2023-05-19T12:55:17.309Z,56955.81
2023-05-19T12:57:49.908Z,56955.81
2023-05-19T13:00:21.586Z,56955.81
2023-05-19T13:03:04.790Z,56955.81
2023-05-19T13:05:34.071Z,56955.81
2023-05-19T13:08:09.072Z,56955.81
2023-05-19T13:10:38.276Z,56955.81
2023-05-19T13:13:06.165Z,56955.81
2023-05-19T13:15:35.376Z,56955.81
2023-05-19T13:18:04.598Z,56955.81
2023-05-19T13:20:31.716Z,56955.81
2023-05-19T13:22:59.001Z,56955.81
2023-05-19T13:25:27.150Z,56955.81
2023-05-19T13:27:54.557Z,56955.81
2023-05-19T13:30:22.096Z,56955.81
2023-05-19T13:32:49.465Z,56955.81
2023-05-19T13:35:17.245Z,56955.81
2023-05-19T13:37:44.615Z,56955.81
2023-05-19T13:40:12.338Z,56955.81
2023-05-19T13:42:39.943Z,56955.81
2023-05-19T13:45:08.499Z,56955.81
2023-05-19T13:47:35.887Z,56955.81
2023-05-19T13:50:04.656Z,56955.81
2023-05-19T13:52:32.352Z,56955.81
2023-05-19T13:55:00.175Z,56955.81
2023-05-19T13:57:28.050Z,56955.81
2023-05-19T14:00:02.715Z,56955.81
2023-05-19T14:02:41.106Z,56955.81
2023-05-19T14:05:08.626Z,56955.81
2023-05-19T14:07:35.983Z,56955.81
2023-05-19T14:10:05.730Z,56955.81
2023-05-19T14:12:41.365Z,56955.81
2023-05-19T14:15:14.581Z,56955.81
2023-05-19T14:17:41.793Z,56955.81
2023-05-19T14:20:09.646Z,56955.81
2023-05-19T14:22:36.514Z,56955.81
2023-05-19T14:25:03.750Z,56955.81
2023-05-19T14:27:30.655Z,56955.81
2023-05-19T14:29:57.583Z,56955.81
2023-05-19T14:32:24.674Z,56955.81
2023-05-19T14:34:52.964Z,56955.81
2023-05-19T14:37:20.534Z,56955.81
2023-05-19T14:39:47.344Z,56955.81
2023-05-19T14:42:14.197Z,56955.81
2023-05-19T14:44:41.105Z,56955.81
2023-05-19T14:47:08.390Z,56955.81
2023-05-19T14:49:35.242Z,56955.81
2023-05-19T14:52:02.106Z,56955.81
2023-05-19T14:54:28.882Z,56955.81
2023-05-19T14:56:55.684Z,56955.81
2023-05-19T14:59:22.766Z,56955.81
2023-05-19T15:01:49.583Z,56955.81
2023-05-19T15:04:16.479Z,56955.81
2023-05-19T15:06:43.251Z,56955.81
2023-05-19T15:09:11.967Z,56955.81
2023-05-19T15:11:38.809Z,56955.81
2023-05-19T15:14:05.428Z,56955.81
2023-05-19T15:16:32.204Z,56955.81
2023-05-19T15:18:58.970Z,56955.81
2023-05-19T15:21:25.682Z,56955.81
2023-05-19T15:23:52.476Z,56955.81
2023-05-19T15:26:19.107Z,56955.81
2023-05-19T15:28:45.968Z,56955.81
2023-05-19T15:31:12.708Z,56955.81
2023-05-19T15:33:39.537Z,56955.81
2023-05-19T15:36:06.986Z,56955.81
2023-05-19T15:38:37.314Z,56955.81
2023-05-19T15:41:08.211Z,56955.81
2023-05-19T15:43:35.213Z,56955.81
2023-05-19T15:46:02.210Z,56955.81
2023-05-19T15:48:28.934Z,56955.81
2023-05-19T15:50:58.178Z,56955.81
2023-05-19T15:53:25.811Z,56955.81
2023-05-19T15:55:52.737Z,56955.81
2023-05-19T15:58:19.327Z,56955.81
2023-05-19T16:00:46.224Z,56955.81
2023-05-19T16:03:12.988Z,56955.81
2023-05-19T16:05:39.809Z,56955.81
2023-05-19T16:08:07.771Z,56955.81
2023-05-19T16:10:35.810Z,56955.81
2023-05-19T16:13:02.695Z,56955.81
2023-05-19T16:15:29.278Z,56955.81
2023-05-19T16:17:56.820Z,56955.81
2023-05-19T16:20:26.865Z,56955.81
2023-05-19T16:22:54.341Z,56955.81
2023-05-19T16:25:21.526Z,56955.81
2023-05-19T16:27:48.278Z,56955.81
2023-05-19T16:30:16.437Z,56955.81
2023-05-19T16:32:43.430Z,56955.81
2023-05-19T16:35:10.249Z,56955.81
2023-05-19T16:37:37.170Z,56955.81
2023-05-19T16:40:04.314Z,56955.81
2023-05-19T16:42:32.008Z,56955.81
2023-05-19T16:44:58.754Z,56955.81
2023-05-19T16:47:25.510Z,56955.81
2023-05-19T16:49:52.366Z,56955.81
2023-05-19T16:52:18.944Z,56955.81
2023-05-19T16:54:45.726Z,56955.81
2023-05-19T16:57:14.811Z,56955.81
2023-05-19T16:59:42.332Z,56955.81
2023-05-19T17:02:09.254Z,56955.81
2023-05-19T17:04:36.116Z,56955.81
2023-05-19T17:07:02.919Z,56955.81
2023-05-19T17:09:29.717Z,56955.81
2023-05-19T17:11:56.522Z,56955.81
2023-05-19T17:14:23.186Z,56955.81
2023-05-19T17:16:50.031Z,56955.81
2023-05-19T17:19:16.903Z,56955.81
2023-05-19T17:21:43.759Z,56955.81
2023-05-19T17:24:10.547Z,56955.81
2023-05-19T17:26:37.471Z,56955.81
2023-05-19T17:29:04.321Z,56955.81
2023-05-19T17:31:31.059Z,56955.81
2023-05-19T17:33:57.797Z,56955.81
2023-05-19T17:36:24.758Z,56955.81
2023-05-19T17:38:51.385Z,56955.81
2023-05-19T17:41:18.204Z,56955.81
2023-05-19T17:43:44.977Z,56955.81
2023-05-19T17:46:11.884Z,56955.81
2023-05-19T17:48:39.925Z,56955.81
2023-05-19T17:51:09.764Z,56955.81
2023-05-19T17:53:36.963Z,56955.81
2023-05-19T17:56:06.967Z,56955.81
2023-05-19T17:58:34.130Z,56955.81
2023-05-19T18:01:01.005Z,56955.81
2023-05-19T18:03:27.788Z,56955.81
2023-05-19T18:05:54.808Z,56955.81
2023-05-19T18:08:21.538Z,56955.81
2023-05-19T18:10:51.590Z,56955.81
2023-05-19T18:13:18.710Z,56955.81
2023-05-19T18:15:45.481Z,56955.81
2023-05-19T18:18:12.354Z,56955.81
2023-05-19T18:20:41.164Z,56955.81
2023-05-19T18:23:07.996Z,56955.81
2023-05-19T18:25:35.917Z,56955.81
2023-05-19T18:28:02.714Z,56955.81
2023-05-19T18:30:29.662Z,56955.81
2023-05-19T18:32:56.637Z,56955.81
2023-05-19T18:35:23.272Z,56955.81
2023-05-19T18:37:50.208Z,56955.81
2023-05-19T18:40:17.020Z,56955.81
2023-05-19T18:42:43.777Z,56955.81
2023-05-19T18:45:10.890Z,56955.81
2023-05-19T18:47:37.682Z,56955.81
2023-05-19T18:50:04.831Z,56955.81
2023-05-19T18:52:31.797Z,56955.81
2023-05-19T18:55:01.179Z,56955.81
2023-05-19T18:57:28.186Z,56955.81
2023-05-19T18:59:54.829Z,56955.81
2023-05-19T19:02:21.640Z,56955.81
2023-05-19T19:04:48.475Z,56955.81
2023-05-19T19:07:15.335Z,56955.81
2023-05-19T19:09:43.779Z,56955.81
2023-05-19T19:12:10.888Z,56955.81
2023-05-19T19:14:37.632Z,56955.81
2023-05-19T19:17:04.585Z,56955.81
2023-05-19T19:19:31.440Z,56955.81
2023-05-19T19:21:58.241Z,56955.81
2023-05-19T19:24:26.459Z,56955.81
2023-05-19T19:26:53.179Z,56955.81
2023-05-19T19:29:21.944Z,56955.81
2023-05-19T19:31:48.970Z,56955.81
2023-05-19T19:34:15.987Z,56955.81
2023-05-19T19:36:43.893Z,56955.81
2023-05-19T19:39:10.729Z,56955.81
2023-05-19T19:41:37.584Z,56955.81
2023-05-19T19:44:04.589Z,56955.81
2023-05-19T19:46:31.452Z,56955.81
2023-05-19T19:49:00.305Z,56955.81
2023-05-19T19:51:28.322Z,56955.81
2023-05-19T19:53:55.431Z,56955.81
2023-05-19T19:56:24.596Z,56955.81
2023-05-19T19:58:51.560Z,56955.81
2023-05-19T20:01:20.752Z,56955.81
2023-05-19T20:03:48.129Z,56955.81
2023-05-19T20:06:15.392Z,56955.81
2023-05-19T20:08:42.378Z,56955.81
2023-05-19T20:11:09.299Z,56955.81
2023-05-19T20:13:36.641Z,56955.81
2023-05-19T20:16:04.217Z,56955.81
2023-05-19T20:18:31.028Z,56955.81
2023-05-19T20:20:58.095Z,56955.81
2023-05-19T20:23:25.067Z,56955.81
2023-05-19T20:26:09.927Z,56955.81
2023-05-19T20:28:38.443Z,56955.81
2023-05-19T20:31:06.485Z,56955.81
2023-05-19T20:33:33.339Z,56955.81
2023-05-19T20:36:00.352Z,56955.81
2023-05-19T20:38:27.176Z,56955.81
2023-05-19T20:40:54.590Z,56955.81
2023-05-19T20:43:21.578Z,56955.81
2023-05-19T20:45:48.505Z,56955.81
2023-05-19T20:48:16.050Z,56955.81
2023-05-19T20:50:43.003Z,56955.81
2023-05-19T20:53:10.053Z,56955.81
2023-05-19T20:55:37.868Z,56955.81
2023-05-19T20:58:04.636Z,56955.81
2023-05-19T21:00:31.535Z,56955.81
2023-05-19T21:02:58.720Z,56955.81
2023-05-19T21:05:25.574Z,56955.81
2023-05-19T21:07:52.330Z,56955.81
2023-05-19T21:10:19.129Z,56955.81
2023-05-19T21:12:46.783Z,56955.81
2023-05-19T21:15:13.672Z,56955.81
2023-05-19T21:17:40.684Z,56955.81
2023-05-19T21:20:07.680Z,56955.81
2023-05-19T21:22:36.087Z,56955.81
2023-05-19T21:25:02.933Z,56955.81
2023-05-19T21:27:32.157Z,56955.81
2023-05-19T21:29:59.684Z,56955.81
2023-05-19T21:32:27.364Z,56955.81
2023-05-19T21:34:54.150Z,56955.81
2023-05-19T21:37:21.689Z,56955.81
2023-05-19T21:39:48.909Z,56955.81
2023-05-19T21:42:15.699Z,56955.81
2023-05-19T21:44:42.432Z,56955.81
2023-05-19T21:47:09.281Z,56955.81
2023-05-19T21:49:36.214Z,56955.81
2023-05-19T21:52:02.812Z,56955.81
2023-05-19T21:54:29.595Z,56955.81
2023-05-19T21:56:56.403Z,56955.81
2023-05-19T21:59:24.765Z,56955.81
2023-05-19T22:01:51.869Z,56955.81
2023-05-19T22:04:18.801Z,56955.81
2023-05-19T22:06:45.796Z,56955.81
2023-05-19T22:09:12.903Z,56955.81
2023-05-19T22:11:39.952Z,56955.81
2023-05-19T22:14:06.880Z,56955.81
2023-05-19T22:16:33.874Z,56955.81
2023-05-19T22:19:00.718Z,56955.81
2023-05-19T22:21:27.641Z,56955.81
2023-05-19T22:23:54.433Z,56955.81
2023-05-19T22:26:22.087Z,56955.81
2023-05-19T22:28:49.513Z,56955.81
2023-05-19T22:31:16.722Z,56955.81
2023-05-19T22:33:43.312Z,56955.81
2023-05-19T22:36:11.045Z,56955.81
2023-05-19T22:38:37.896Z,56955.81
2023-05-19T22:41:05.101Z,56955.81
2023-05-19T22:43:31.829Z,56955.81
2023-05-19T22:45:58.615Z,56955.81
2023-05-19T22:48:25.438Z,56955.81
2023-05-19T22:50:52.431Z,56955.81
2023-05-19T22:53:19.147Z,56955.81
2023-05-19T22:55:46.135Z,56955.81
2023-05-19T22:58:12.890Z,56955.81
2023-05-19T23:00:39.596Z,56955.81
2023-05-19T23:03:06.487Z,56955.81
2023-05-19T23:05:33.545Z,56955.81
2023-05-19T23:08:00.657Z,56955.81
2023-05-19T23:10:27.442Z,56955.81
2023-05-19T23:12:54.269Z,56955.81
2023-05-19T23:15:21.046Z,56955.81
2023-05-19T23:17:47.781Z,56955.81
2023-05-19T23:20:14.583Z,56955.81
2023-05-19T23:22:41.367Z,56955.81
2023-05-19T23:25:08.300Z,56955.81
2023-05-19T23:27:35.700Z,56955.81
2023-05-19T23:30:03.107Z,56955.81
2023-05-19T23:32:29.970Z,56955.81
2023-05-19T23:34:56.798Z,56955.81
2023-05-19T23:37:23.523Z,56955.81
2023-05-19T23:39:50.514Z,56955.81
2023-05-19T23:42:17.364Z,56955.81
2023-05-19T23:44:44.125Z,56955.81
2023-05-19T23:47:11.015Z,56955.81
2023-05-19T23:49:37.832Z,56955.81
2023-05-19T23:52:04.659Z,56955.81
2023-05-19T23:54:31.497Z,56955.81
2023-05-19T23:56:58.558Z,56955.81
2023-05-19T23:59:25.386Z,56955.81
